• Join FlightAware (Why Join?)
  • Login
  • US Flag 
05:45AM EDT


 

Airport Tracker/Info


-or-


 

Live Flight TrackerFlight Track Log ✈ N900TG ✈ 02-May-2014 ✈ KRNO - KUAO

Flight Track Log - Related Links

Times and Time Zones

All times are in EDT time to prevent confusion due to time zone crossing. See the N900TG flight status page for this flight to view local times or setup timezone preferences in your user account.

Time Position Orientation Groundspeed Altitude Reporting Facility
EDT Latitude Longitude Course Direction KTS MPH feet Rate Location/Type
04:42PM 39.6219 -119.7836 357° North 10,900  Level FlightAware ADS-B (KAHC)
04:43PM 39.7138 -119.7905 349° North 350 403 21,100 8,460 Climbing FlightAware ADS-B (KAHC)
04:43PM 39.7343 -119.8070 328° Northwest 334 384 22,400 -2,280 Climbing FlightAware ADS-B (KAHC)
04:44PM 39.8176 -119.8723 330° Northwest 324 373 18,400 -60 Descending FlightAware ADS-B (KAHC)
04:45PM 39.9176 -119.9487 330° Northwest 349 402 22,300 3,060 Climbing FlightAware ADS-B (KAHC)
04:46PM 39.9629 -119.9844 329° Northwest 300 345 23,700 18,600 Climbing FlightAware ADS-B (KAHC)
04:47PM 40.0211 -120.0286 330° Northwest 311 358 47,800 17,580 Climbing FlightAware ADS-B (KAHC)
04:47PM 40.0789 -120.0735 329° Northwest 361 415 47,800 -18,300 Level FlightAware ADS-B (KAHC)
04:48PM 40.1241 -120.1085 329° Northwest 320 368 28,900 60 Descending FlightAware ADS-B (KAHC)
04:49PM 40.2673 -120.2183 330° Northwest 418 481 48,000 1,920 Climbing FlightAware ADS-B (KAHC)
04:50PM 40.3225 -120.2515 335° Northwest 418 481 33,100 -7,620 Descending FlightAware ADS-B (KAHC)
04:51PM 40.4501 -120.3115 340° North 406 467 34,600 1,200 Climbing FlightAware ADS-B (KAHC)
04:56PM 41.0539 -120.5989 340° North 419 482 41,100 1,080 Climbing FlightAware ADS-B (KAHC)
04:57PM 41.1162 -120.6289 340° North 403 464 41,100  Level FlightAware ADS-B (KAHC)
05:00PM 41.5336 -120.8317 340° North 302 348 41,100 -300 Level FlightAware ADS-B (KPFC)
05:01PM 41.6008 -120.8656 340° North 451 519 40,000 -660 Descending Seattle Center
05:02PM 41.7192 -120.9231 340° North 452 520 40,000  Level Seattle Center
05:03PM 41.8369 -120.9822 339° North 454 522 40,000  Level Seattle Center
05:04PM 41.9547 -121.0403 340° North 455 524 40,000  Level Seattle Center
05:05PM 42.0744 -121.0997 340° North 458 527 40,000  Level Seattle Center
05:06PM 42.2161 -121.1717 339° North 458 527 40,000  Level Seattle Center
05:07PM 42.3358 -121.2283 341° North 457 526 40,000  Level Seattle Center
05:08PM 42.4553 -121.2894 339° North 460 529 40,000 60 Level Seattle Center
05:14PM 43.1377 -121.6379 340° North 302 348 40,500 -120 Climbing FlightAware ADS-B (KPFC)
05:14PM 43.2158 -121.6784 340° North 302 348 39,600 -1,320 Descending FlightAware ADS-B (KPFC)
05:15PM 43.2259 -121.6835 340° North 302 348 39,500 -1,860 Descending FlightAware ADS-B (KPFC)
05:15PM 43.3022 -121.7232 340° North 302 348 38,300 -2,340 Descending FlightAware ADS-B (KPFC)
05:16PM 43.2259 -121.6835 159° South 36,000 -2,400 Descending FlightAware ADS-B
05:17PM 43.5654 -121.8607 339° North 523 602 33,100 -2,220 Descending FlightAware ADS-B (KPFC)
05:19PM 43.8189 -121.9942 339° North 794 914 27,800 -2,580 Descending FlightAware ADS-B (KPFC)
05:22PM 44.0624 -122.1238 339° North 431 496 21,100 -2,100 Descending FlightAware ADS-B
05:24PM 44.3526 -122.2797 339° North 539 620 18,100 -1,560 Descending FlightAware ADS-B
05:25PM 44.4629 -122.3392 339° North 381 438 16,500 -1,620 Descending FlightAware ADS-B
05:26PM 44.5320 -122.3764 339° North 413 475 15,500 -1,500 Descending FlightAware ADS-B (KPFC)
05:26PM 44.5705 -122.3973 339° North 463 533 15,000 -1,800 Descending FlightAware ADS-B
05:27PM 44.6361 -122.4328 339° North 412 474 13,700 -1,380 Descending FlightAware ADS-B
05:28PM 44.7566 -122.4984 339° North 386 444 12,300 -1,320 Descending FlightAware ADS-B
05:29PM 44.8353 -122.5416 339° North 294 338 11,100 -1,500 Descending FlightAware ADS-B
05:29PM 44.8480 -122.5486 159° South 305 351 10,800 -1,200 Descending FlightAware ADS-B
05:29PM 44.8839 -122.5685 339° North 380 437 10,400 -1,740 Descending FlightAware ADS-B (KPFC)
05:30PM 44.9109 -122.5834 339° North 380 437 9,800 -2,340 Descending FlightAware ADS-B (KPFC)
05:30PM 44.9427 -122.6010 339° North 414 476 8,700 -2,040 Descending FlightAware ADS-B
05:31PM 44.9909 -122.6277 339° North 325 374 7,600 -1,920 Descending FlightAware ADS-B
05:31PM 45.0182 -122.6427 339° North 300 345 6,800 -2,580 Descending FlightAware ADS-B
05:31PM 45.0325 -122.6507 338° Northwest 262 302 5,900 -2,460 Descending FlightAware ADS-B
05:32PM 45.0700 -122.6714 339° North 306 352 5,300 -2,400 Descending FlightAware ADS-B (KPFC)
05:32PM 45.0979 -122.6869 339° North 372 428 4,300 -2,100 Descending FlightAware ADS-B
05:32PM 45.1216 -122.7001 339° North 292 336 3,900 -1,560 Descending FlightAware ADS-B (KPFC)
05:33PM 45.1436 -122.7117 340° North 316 364 3,300 -1,860 Descending FlightAware ADS-B
05:33PM 45.1827 -122.7202 358° North 278 320 2,400 -1,380 Descending FlightAware ADS-B (KPFC)
05:34PM 45.2070 -122.7201 358° North 278 320 2,200 -2,400 Descending FlightAware ADS-B (KPFC)
05:34PM 45.2410 -122.7192 North 269 310 300 -540 Descending FlightAware ADS-B
05:34PM 45.2439 -122.7191 358° North 278 320 1,900 3,960 Climbing FlightAware ADS-B (KPFC)
05:34PM 45.2617 -122.7184 North 189 217 1,700 -660 Descending FlightAware ADS-B (KPFC)
05:35PM 45.2714 -122.7203 352° North 285 328 1,500 -960 Descending FlightAware ADS-B
05:35PM 45.2786 -122.7299 308° West 255 293 1,100 -780 Descending FlightAware ADS-B
05:35PM 45.2800 -122.7500 300° West 298 343 1,100 -420 Level FlightAware ADS-B (KPFC)
05:35PM 45.2802 -122.7483 81° East 223 257 1,000 -1,140 Descending FlightAware ADS-B
05:36PM 45.2762 -122.7616 247° West 550 633 800 -960 Descending FlightAware ADS-B (KPFC)
05:36PM 45.2708 -122.7656 207° Southwest 220 253 600 -1,020 Descending FlightAware ADS-B